Mr Thomas — WDD7163 — position and weather

sailwx.info

Track history (hours):
 
Tides and Currents Weather Stations Pressure Air Temp Water Temp Dewpoint Dewpoint Depression Visibility Wind Speed Wind Dir Waves Ship Positions

Mr Thomas

Owner: CENTRAL BOAT RENTALS, BERWICK, LA. More information available from US FCC via Universal Licensing System and Coast Guard Vessel Documentation Center.

Last reported at 2017-Mar-23 09:11 UTC. Time now 2017-Mar-23 22:16 UTC.
Position N 29°39' W 090°20'.

Length 21 m; draft 2.5 m.

Type: Tug. MMSI: 367182730.

Date/timePositionNaut miles runAvg speedWind from/ knotsBaromVisibWave heightAir tempDewpointWater temp
2017-Mar-23 09:11N 29°39' W 090°20'5 1.7
2017-Mar-23 06:05N 29°34' W 090°23'3 5.0
2017-Mar-23 05:28N 29°33' W 090°27'7 6.7
2017-Mar-23 04:29N 29°34' W 090°34'6 6.2
2017-Mar-23 03:33N 29°36' W 090°40'5 4.8
2017-Mar-23 02:33N 29°33' W 090°45'7 6.4
2017-Mar-23 01:29N 29°32' W 090°53'56 3.5
2017-Mar-22 09:33N 29°51' W 091°54'6 6.3
2017-Mar-22 08:33N 29°49' W 092°01'5 5.4
2017-Mar-22 07:34N 29°47' W 092°07'4 4.5
2017-Mar-22 06:33N 29°47' W 092°12'2 1.5
2017-Mar-22 05:31N 29°48' W 092°14'1 1.2
2017-Mar-22 04:33N 29°48' W 092°15'5 5.3
2017-Mar-22 03:33N 29°51' W 092°21'5 5.1
2017-Mar-22 02:33N 29°53' W 092°26'9 6.5
2017-Mar-22 01:08N 29°55' W 092°36'23 6.3
2017-Mar-21 21:27N 29°56' W 093°03'6 6.5
2017-Mar-21 20:34N 29°56' W 093°09'6 6.1
2017-Mar-21 19:34N 30°01' W 093°14'5 5.3
2017-Mar-21 18:32N 30°05' W 093°18'2 2.0
2017-Mar-21 17:33N 30°05' W 093°20'6 6.0
2017-Mar-21 16:33N 30°04' W 093°27'7 6.7
2017-Mar-21 15:33N 30°04' W 093°34'7 6.5
2017-Mar-21 14:27N 30°03' W 093°43'69 5.2
2017-Mar-21 01:07N 29°31' W 094°53'4 7.5
2017-Mar-21 00:34N 29°35' W 094°56'8 7.9
2017-Mar-20 23:34N 29°42' W 095°00'8 6.3
2017-Mar-20 22:18N 29°44' W 095°09'2 0.3
2017-Mar-20 16:26N 29°45' W 095°10'0 0.0
2017-Mar-20 08:10N 29°45' W 095°10'5 6.1
2017-Mar-20 07:18N 29°45' W 095°04'4 6.1
2017-Mar-20 06:33N 29°42' W 095°00'7 6.6
2017-Mar-20 05:33N 29°36' W 094°57'7 6.6
2017-Mar-20 04:33N 29°31' W 094°53'72 6.0
2017-Mar-19 16:31N 30°04' W 093°39'7 6.8
2017-Mar-19 15:33N 30°04' W 093°31'4 4.0
2017-Mar-19 14:31N 30°04' W 093°26'0 0.0
2017-Mar-19 13:31N 30°04' W 093°26'0 0.0
2017-Mar-19 12:31N 30°04' W 093°26'0 0.0
2017-Mar-19 11:31N 30°04' W 093°26'5 5.0
2017-Mar-19 10:33N 30°04' W 093°21'3 3.0
2017-Mar-19 09:33N 30°05' W 093°18'1 1.0
2017-Mar-19 08:31N 30°05' W 093°17'0 0.0
2017-Mar-19 07:28N 30°05' W 093°17'4 4.8
2017-Mar-19 06:33N 30°01' W 093°14'6 6.5
2017-Mar-19 05:33N 29°56' W 093°09'36 6.6
2017-Mar-19 00:07N 29°54' W 092°27'4 7.2
2017-Mar-18 23:33N 29°53' W 092°23'7 6.8
2017-Mar-18 22:33N 29°49' W 092°17'4 4.0
2017-Mar-18 21:33N 29°47' W 092°12'1 0.8
2017-Mar-18 20:31N 29°47' W 092°11'0 0.5
2017-Mar-18 19:31N 29°47' W 092°11'2 1.7
2017-Mar-18 18:33N 29°47' W 092°09'7 6.9
2017-Mar-18 17:33N 29°49' W 092°02'7 7.1
2017-Mar-18 16:31N 29°51' W 091°53'  
Track history (hours):
 
Tides and Currents Weather Stations Pressure Air Temp Water Temp Dewpoint Dewpoint Depression Visibility Wind Speed Wind Dir Waves Ship Positions

Mr Thomas

Owner: CENTRAL BOAT RENTALS, BERWICK, LA. More information available from US FCC via Universal Licensing System and Coast Guard Vessel Documentation Center.

Last reported at 2017-Mar-23 09:11 UTC. Time now 2017-Mar-23 22:16 UTC.
Position N 29°39' W 090°20'.

Length 21 m; draft 2.5 m.

Type: Tug. MMSI: 367182730.

Date/timePositionNaut miles runAvg speedWind from/ knotsBaromVisibWave heightAir tempDewpointWater temp
2017-Mar-23 09:11N 29°39' W 090°20'5 1.7
2017-Mar-23 06:05N 29°34' W 090°23'3 5.0
2017-Mar-23 05:28N 29°33' W 090°27'7 6.7
2017-Mar-23 04:29N 29°34' W 090°34'6 6.2
2017-Mar-23 03:33N 29°36' W 090°40'5 4.8
2017-Mar-23 02:33N 29°33' W 090°45'7 6.4
2017-Mar-23 01:29N 29°32' W 090°53'56 3.5
2017-Mar-22 09:33N 29°51' W 091°54'6 6.3
2017-Mar-22 08:33N 29°49' W 092°01'5 5.4
2017-Mar-22 07:34N 29°47' W 092°07'4 4.5
2017-Mar-22 06:33N 29°47' W 092°12'2 1.5
2017-Mar-22 05:31N 29°48' W 092°14'1 1.2
2017-Mar-22 04:33N 29°48' W 092°15'5 5.3
2017-Mar-22 03:33N 29°51' W 092°21'5 5.1
2017-Mar-22 02:33N 29°53' W 092°26'9 6.5
2017-Mar-22 01:08N 29°55' W 092°36'23 6.3
2017-Mar-21 21:27N 29°56' W 093°03'6 6.5
2017-Mar-21 20:34N 29°56' W 093°09'6 6.1
2017-Mar-21 19:34N 30°01' W 093°14'5 5.3
2017-Mar-21 18:32N 30°05' W 093°18'2 2.0
2017-Mar-21 17:33N 30°05' W 093°20'6 6.0
2017-Mar-21 16:33N 30°04' W 093°27'7 6.7
2017-Mar-21 15:33N 30°04' W 093°34'7 6.5
2017-Mar-21 14:27N 30°03' W 093°43'69 5.2
2017-Mar-21 01:07N 29°31' W 094°53'4 7.5
2017-Mar-21 00:34N 29°35' W 094°56'8 7.9
2017-Mar-20 23:34N 29°42' W 095°00'8 6.3
2017-Mar-20 22:18N 29°44' W 095°09'2 0.3
2017-Mar-20 16:26N 29°45' W 095°10'0 0.0
2017-Mar-20 08:10N 29°45' W 095°10'5 6.1
2017-Mar-20 07:18N 29°45' W 095°04'4 6.1
2017-Mar-20 06:33N 29°42' W 095°00'7 6.6
2017-Mar-20 05:33N 29°36' W 094°57'7 6.6
2017-Mar-20 04:33N 29°31' W 094°53'72 6.0
2017-Mar-19 16:31N 30°04' W 093°39'7 6.8
2017-Mar-19 15:33N 30°04' W 093°31'4 4.0
2017-Mar-19 14:31N 30°04' W 093°26'0 0.0
2017-Mar-19 13:31N 30°04' W 093°26'0 0.0
2017-Mar-19 12:31N 30°04' W 093°26'0 0.0
2017-Mar-19 11:31N 30°04' W 093°26'5 5.0
2017-Mar-19 10:33N 30°04' W 093°21'3 3.0
2017-Mar-19 09:33N 30°05' W 093°18'1 1.0
2017-Mar-19 08:31N 30°05' W 093°17'0 0.0
2017-Mar-19 07:28N 30°05' W 093°17'4 4.8
2017-Mar-19 06:33N 30°01' W 093°14'6 6.5
2017-Mar-19 05:33N 29°56' W 093°09'36 6.6
2017-Mar-19 00:07N 29°54' W 092°27'4 7.2
2017-Mar-18 23:33N 29°53' W 092°23'7 6.8
2017-Mar-18 22:33N 29°49' W 092°17'4 4.0
2017-Mar-18 21:33N 29°47' W 092°12'1 0.8
2017-Mar-18 20:31N 29°47' W 092°11'0 0.5
2017-Mar-18 19:31N 29°47' W 092°11'2 1.7
2017-Mar-18 18:33N 29°47' W 092°09'7 6.9
2017-Mar-18 17:33N 29°49' W 092°02'7 7.1
2017-Mar-18 16:31N 29°51' W 091°53'  

Dump ship's entire track history